createdAt,value
2023-02-18T00:02:19.280Z,1.91
2023-02-18T00:04:47.910Z,2.04
2023-02-18T00:07:16.656Z,1.98
2023-02-18T00:09:45.295Z,2.00
2023-02-18T00:12:13.852Z,2.02
2023-02-18T00:14:42.452Z,1.98
2023-02-18T00:17:13.748Z,1.95
2023-02-18T00:19:42.348Z,1.93
2023-02-18T00:22:10.951Z,1.77
2023-02-18T00:24:40.224Z,1.76
2023-02-18T00:27:09.711Z,1.72
2023-02-18T00:29:38.412Z,1.81
2023-02-18T00:32:07.118Z,1.74
2023-02-18T00:34:35.814Z,1.70
2023-02-18T00:37:05.075Z,1.59
2023-02-18T00:39:33.698Z,1.50
2023-02-18T00:42:02.335Z,1.47
2023-02-18T00:44:30.991Z,1.45
2023-02-18T00:46:59.681Z,1.45
2023-02-18T00:49:28.366Z,1.34
2023-02-18T00:51:57.036Z,1.35
2023-02-18T00:54:26.013Z,1.36
2023-02-18T00:56:57.583Z,1.44
2023-02-18T00:59:26.175Z,1.49
2023-02-18T01:01:54.802Z,1.48
2023-02-18T01:04:23.523Z,1.38
2023-02-18T01:06:52.541Z,1.29
2023-02-18T01:09:21.279Z,1.31
2023-02-18T01:11:49.985Z,1.42
2023-02-18T01:14:18.700Z,1.38
2023-02-18T01:16:47.223Z,1.29
2023-02-18T01:19:15.980Z,1.26
2023-02-18T01:21:44.667Z,1.36
2023-02-18T01:24:13.242Z,1.21
2023-02-18T01:26:41.810Z,1.16
2023-02-18T01:29:10.405Z,1.20
2023-02-18T01:31:39.217Z,1.11
2023-02-18T01:34:07.925Z,1.10
2023-02-18T01:36:36.584Z,1.16
2023-02-18T01:39:07.245Z,1.06
2023-02-18T01:41:35.984Z,1.25
2023-02-18T01:44:19.554Z,1.21
2023-02-18T01:46:49.285Z,1.07
2023-02-18T01:49:23.617Z,1.17
2023-02-18T01:51:55.226Z,1.08
2023-02-18T01:54:32.695Z,1.16
2023-02-18T01:57:16.479Z,1.08
2023-02-18T01:59:48.045Z,1.06
2023-02-18T02:02:19.732Z,1.06
2023-02-18T02:04:49.201Z,1.07
2023-02-18T02:07:20.686Z,0.97
2023-02-18T02:09:51.858Z,0.97
2023-02-18T02:12:44.781Z,0.95
2023-02-18T02:15:48.170Z,0.96
2023-02-18T02:18:46.920Z,0.87
2023-02-18T02:21:18.496Z,0.80
2023-02-18T02:24:11.464Z,0.80
2023-02-18T02:27:07.085Z,0.82
2023-02-18T02:29:50.719Z,0.77
2023-02-18T02:32:25.309Z,0.85
2023-02-18T02:35:08.954Z,0.84
2023-02-18T02:37:49.216Z,0.89
2023-02-18T02:40:27.808Z,0.80
2023-02-18T02:43:26.189Z,0.92
2023-02-18T02:45:57.953Z,0.97
2023-02-18T02:48:58.755Z,0.79
2023-02-18T02:51:33.226Z,0.92
2023-02-18T02:54:20.100Z,0.93
2023-02-18T02:56:49.433Z,0.97
2023-02-18T02:59:24.084Z,1.03
2023-02-18T03:02:07.679Z,0.95
2023-02-18T03:05:00.183Z,1.05
2023-02-18T03:07:37.649Z,0.96
2023-02-18T03:10:33.557Z,0.91
2023-02-18T03:13:21.530Z,1.02
2023-02-18T03:16:05.053Z,0.90
2023-02-18T03:18:42.832Z,1.00
2023-02-18T03:21:26.374Z,0.86
2023-02-18T03:24:06.544Z,0.93
2023-02-18T03:26:37.593Z,0.90
2023-02-18T03:29:08.531Z,0.91
2023-02-18T03:31:40.049Z,0.81
2023-02-18T03:34:14.488Z,0.85
2023-02-18T03:36:44.149Z,0.87
2023-02-18T03:39:18.097Z,0.85
2023-02-18T03:41:47.411Z,0.78
2023-02-18T03:44:16.264Z,0.69
2023-02-18T03:46:46.471Z,0.78
2023-02-18T03:49:16.321Z,0.88
2023-02-18T03:51:45.701Z,0.74
2023-02-18T03:54:14.786Z,0.56
2023-02-18T03:56:44.120Z,0.58
2023-02-18T03:59:14.376Z,0.53
2023-02-18T04:01:43.064Z,0.44
2023-02-18T04:04:11.737Z,0.44
2023-02-18T04:06:40.549Z,0.46
2023-02-18T04:09:09.502Z,0.48
2023-02-18T04:11:40.377Z,0.44
2023-02-18T04:14:09.805Z,0.13
2023-02-18T04:16:38.536Z,0.59
2023-02-18T04:19:07.321Z,0.48
2023-02-18T04:21:36.405Z,0.38
2023-02-18T04:24:05.057Z,0.50
2023-02-18T04:26:33.718Z,0.45
2023-02-18T04:29:02.591Z,0.51
2023-02-18T04:31:31.390Z,0.56
2023-02-18T04:34:00.185Z,0.41
2023-02-18T04:36:30.710Z,0.47
2023-02-18T04:39:00.006Z,0.44
2023-02-18T04:41:28.653Z,0.44
2023-02-18T04:43:59.010Z,0.57
2023-02-18T04:46:27.840Z,0.76
2023-02-18T04:48:56.579Z,0.77
2023-02-18T04:51:25.429Z,0.85
2023-02-18T04:53:54.265Z,0.93
2023-02-18T04:56:22.916Z,1.05
2023-02-18T04:58:51.594Z,1.18
2023-02-18T05:01:20.356Z,1.14
2023-02-18T05:03:48.993Z,1.29
2023-02-18T05:06:17.650Z,1.24
2023-02-18T05:08:46.495Z,1.20
2023-02-18T05:11:15.262Z,1.15
2023-02-18T05:13:44.080Z,1.47
2023-02-18T05:16:13.282Z,1.45
2023-02-18T05:18:43.665Z,1.22
2023-02-18T05:21:12.280Z,1.00
2023-02-18T05:23:40.998Z,0.79
2023-02-18T05:26:10.041Z,0.74
2023-02-18T05:28:38.850Z,0.46
2023-02-18T05:31:07.541Z,0.44
2023-02-18T05:33:36.648Z,0.69
2023-02-18T05:36:05.825Z,0.74
2023-02-18T05:38:34.443Z,0.74
2023-02-18T05:41:03.690Z,1.06
2023-02-18T05:43:34.034Z,1.04
2023-02-18T05:46:08.883Z,1.23
2023-02-18T05:48:42.453Z,1.33
2023-02-18T05:54:15.835Z,1.52
2023-02-18T05:56:44.497Z,1.56
2023-02-18T05:59:13.415Z,1.78
2023-02-18T06:01:44.685Z,1.99
2023-02-18T06:04:14.598Z,1.99
2023-02-18T06:06:46.405Z,2.10
2023-02-18T06:09:16.708Z,2.33
2023-02-18T06:11:50.447Z,2.32
2023-02-18T06:14:53.857Z,2.64
2023-02-18T06:17:24.226Z,2.82
2023-02-18T06:19:54.590Z,2.84
2023-02-18T06:22:26.508Z,2.65
2023-02-18T06:28:25.416Z,2.52
2023-02-18T06:30:57.068Z,2.32
2023-02-18T06:33:26.911Z,2.46
2023-02-18T06:36:04.004Z,2.71
2023-02-18T06:38:32.852Z,3.17
2023-02-18T06:41:01.979Z,3.50
2023-02-18T06:43:34.324Z,3.50
2023-02-18T06:46:03.275Z,3.67
2023-02-18T06:48:32.891Z,3.83
2023-02-18T06:51:11.314Z,3.91
2023-02-18T06:53:48.652Z,3.91
2023-02-18T06:59:49.836Z,4.44
2023-02-18T07:12:35.299Z,5.62
2023-02-18T07:18:44.775Z,5.70
2023-02-18T07:21:17.408Z,5.91
2023-02-18T07:26:49.111Z,6.31
2023-02-18T07:29:20.789Z,6.44
2023-02-18T07:35:21.756Z,6.64
2023-02-18T07:37:53.875Z,6.61
2023-02-18T07:44:06.358Z,6.35
2023-02-18T09:09:18.954Z,10.55
2023-02-18T09:12:00.895Z,10.59
2023-02-18T09:14:36.924Z,10.60
2023-02-18T09:17:10.009Z,10.02
2023-02-18T09:19:42.054Z,10.01
2023-02-18T09:22:12.128Z,9.64
2023-02-18T09:24:44.067Z,9.87
2023-02-18T09:27:12.916Z,9.55
2023-02-18T09:29:42.782Z,9.69
2023-02-18T09:32:20.008Z,10.13
2023-02-18T09:38:16.960Z,10.93
2023-02-18T09:40:56.076Z,11.59
2023-02-18T09:43:34.569Z,12.11
2023-02-18T09:46:14.136Z,12.58
2023-02-18T09:49:01.198Z,12.74
2023-02-18T09:51:22.317Z,12.57
2023-02-18T09:53:53.294Z,12.77
2023-02-18T09:56:34.552Z,12.57
2023-02-18T09:59:10.481Z,12.68
2023-02-18T10:01:50.501Z,12.58
2023-02-18T10:04:25.430Z,12.65
2023-02-18T10:07:02.613Z,12.57
2023-02-18T10:09:42.482Z,12.67
2023-02-18T10:12:33.673Z,12.96
2023-02-18T10:18:41.958Z,13.87
2023-02-18T10:21:21.272Z,13.69
2023-02-18T10:24:20.089Z,14.03
2023-02-18T10:26:51.463Z,14.63
2023-02-18T10:29:40.179Z,14.90
2023-02-18T10:35:57.011Z,13.43
2023-02-18T10:42:09.093Z,14.89
2023-02-18T10:45:03.095Z,15.40
2023-02-18T10:47:42.944Z,15.41
2023-02-18T10:53:16.492Z,16.07
2023-02-18T10:56:08.938Z,14.84
2023-02-18T10:58:44.145Z,14.57
2023-02-18T11:01:22.612Z,15.76
2023-02-18T11:03:54.983Z,16.40
2023-02-18T11:20:15.689Z,15.37
2023-02-18T11:39:28.505Z,13.73
2023-02-18T11:44:22.880Z,14.07
2023-02-18T11:52:30.150Z,14.54
2023-02-18T11:55:08.668Z,15.03
2023-02-18T11:57:40.503Z,15.21
2023-02-18T12:06:58.128Z,15.24
2023-02-18T12:17:19.081Z,15.80
2023-02-18T12:20:06.685Z,15.43
2023-02-18T12:22:57.610Z,15.34
2023-02-18T12:25:32.243Z,15.39
2023-02-18T12:28:18.824Z,15.10
2023-02-18T12:31:00.789Z,14.94
2023-02-18T12:33:56.014Z,14.84
2023-02-18T12:40:29.704Z,15.07
2023-02-18T12:46:30.515Z,15.04
2023-02-18T12:49:14.102Z,15.11
2023-02-18T12:52:07.045Z,15.11
2023-02-18T12:55:08.805Z,15.12
2023-02-18T12:57:46.567Z,15.17
2023-02-18T13:00:38.064Z,15.50
2023-02-18T13:03:42.960Z,15.60
2023-02-18T13:06:44.360Z,15.71
2023-02-18T13:09:31.694Z,15.72
2023-02-18T13:12:05.281Z,16.17
2023-02-18T13:15:06.177Z,15.97
2023-02-18T13:18:02.152Z,16.04
2023-02-18T13:27:54.357Z,16.35
2023-02-18T13:34:20.600Z,15.73
2023-02-18T13:37:01.108Z,15.44
2023-02-18T13:39:37.393Z,15.35
2023-02-18T13:42:21.402Z,15.09
2023-02-18T13:45:00.919Z,15.18
2023-02-18T13:47:44.989Z,14.93
2023-02-18T13:50:23.685Z,14.78
2023-02-18T13:52:54.896Z,14.63
2023-02-18T13:55:29.485Z,14.69
2023-02-18T14:08:40.833Z,14.39
2023-02-18T14:11:26.830Z,14.45
2023-02-18T14:14:28.638Z,14.42
2023-02-18T14:17:43.431Z,14.34
2023-02-18T14:20:15.334Z,14.32
2023-02-18T14:26:44.512Z,14.21
2023-02-18T14:33:04.108Z,14.21
2023-02-18T14:42:22.144Z,14.10
2023-02-18T14:45:16.698Z,14.06
2023-02-18T14:51:35.143Z,13.92
2023-02-18T14:54:28.275Z,13.95
2023-02-18T14:57:29.201Z,13.87
2023-02-18T15:00:18.484Z,13.87
2023-02-18T15:23:26.685Z,13.23
2023-02-18T15:26:06.816Z,13.12
2023-02-18T15:28:45.362Z,13.09
2023-02-18T15:34:28.420Z,12.91
2023-02-18T15:37:07.498Z,12.83
2023-02-18T15:52:54.250Z,12.33
2023-02-18T15:55:26.293Z,12.25
2023-02-18T15:58:09.570Z,12.17
2023-02-18T16:00:47.289Z,12.12
2023-02-18T16:03:19.069Z,12.08
2023-02-18T16:05:47.990Z,11.88
2023-02-18T16:08:20.229Z,12.01
2023-02-18T16:10:52.010Z,11.99
2023-02-18T16:13:21.270Z,12.02
2023-02-18T16:15:53.918Z,11.83
2023-02-18T16:18:30.321Z,11.76
2023-02-18T16:21:06.266Z,11.70
2023-02-18T16:23:37.953Z,11.67
2023-02-18T16:26:22.158Z,11.64
2023-02-18T16:28:53.454Z,11.47
2023-02-18T16:31:23.211Z,11.15
2023-02-18T16:33:52.011Z,11.56
2023-02-18T16:36:22.784Z,11.46
2023-02-18T16:38:51.608Z,11.37
2023-02-18T16:41:22.816Z,11.27
2023-02-18T16:43:51.836Z,11.22
2023-02-18T16:46:30.507Z,11.23
2023-02-18T16:49:01.569Z,11.15
2023-02-18T16:51:35.218Z,11.11
2023-02-18T16:54:09.992Z,11.11
2023-02-18T17:09:36.394Z,10.95
2023-02-18T17:12:48.714Z,10.83
2023-02-18T17:25:23.345Z,10.68
2023-02-18T17:28:16.847Z,10.80
2023-02-18T17:30:51.107Z,10.76
2023-02-18T17:33:24.236Z,10.77
2023-02-18T17:36:10.049Z,10.74
2023-02-18T17:39:03.036Z,10.74
2023-02-18T17:51:38.245Z,10.73
2023-02-18T18:00:37.424Z,10.45
2023-02-18T18:24:25.472Z,9.57
2023-02-18T18:30:57.354Z,9.09
2023-02-18T18:43:37.684Z,9.05
2023-02-18T18:46:08.242Z,9.08
2023-02-18T18:48:48.160Z,9.17
2023-02-18T18:51:27.839Z,9.08
2023-02-18T18:54:20.648Z,9.25
2023-02-18T19:16:07.713Z,8.95
2023-02-18T19:18:56.939Z,8.94
2023-02-18T19:21:48.270Z,8.91
2023-02-18T19:37:53.104Z,8.75
2023-02-18T19:44:21.085Z,8.65
2023-02-18T19:50:44.126Z,8.33
2023-02-18T19:55:32.732Z,8.39
2023-02-18T19:56:20.793Z,8.23
2023-02-18T20:05:51.208Z,7.82
2023-02-18T20:19:10.378Z,7.57
2023-02-18T20:24:27.532Z,7.36
2023-02-18T20:33:51.551Z,7.07
2023-02-18T20:36:32.691Z,7.18
2023-02-18T20:39:15.779Z,7.01
2023-02-18T20:45:08.381Z,6.91
2023-02-18T20:47:44.062Z,6.84
2023-02-18T20:50:18.872Z,6.79
2023-02-18T21:04:02.086Z,6.84
2023-02-18T21:06:34.964Z,6.66
2023-02-18T21:13:08.081Z,6.62
2023-02-18T21:15:42.759Z,6.51
2023-02-18T21:22:02.220Z,6.46
2023-02-18T21:24:32.662Z,6.49
2023-02-18T21:27:02.833Z,6.57
2023-02-18T21:29:33.463Z,6.59
2023-02-18T21:32:08.307Z,6.56
2023-02-18T21:34:37.186Z,6.46
2023-02-18T21:37:13.494Z,6.68
2023-02-18T21:39:43.181Z,6.51
2023-02-18T21:42:12.027Z,6.47
2023-02-18T21:44:42.787Z,6.26
2023-02-18T21:47:17.895Z,6.24
2023-02-18T21:49:48.440Z,6.11
2023-02-18T21:52:19.502Z,6.11
2023-02-18T21:54:49.482Z,6.00
2023-02-18T21:57:24.333Z,5.97
2023-02-18T22:06:19.023Z,5.90
2023-02-18T22:08:50.839Z,5.97
2023-02-18T22:20:51.600Z,5.74
2023-02-18T22:23:20.529Z,5.87
2023-02-18T22:25:49.340Z,5.75
2023-02-18T22:31:47.974Z,5.96
2023-02-18T22:34:19.579Z,5.76
2023-02-18T22:40:05.441Z,5.87
2023-02-18T22:45:28.297Z,5.88
2023-02-18T22:51:31.951Z,6.13
2023-02-18T22:54:02.223Z,5.97
2023-02-18T22:56:39.641Z,5.89
2023-02-18T22:59:09.774Z,5.89
2023-02-18T23:05:09.805Z,5.90
2023-02-18T23:07:44.724Z,5.89
2023-02-18T23:13:51.941Z,5.67
2023-02-18T23:26:02.888Z,5.76
2023-02-18T23:28:33.530Z,5.70
2023-02-18T23:34:54.189Z,5.70
2023-02-18T23:37:24.748Z,5.54
2023-02-18T23:39:53.592Z,5.52
2023-02-18T23:42:28.066Z,5.36
2023-02-18T23:44:58.316Z,5.34
2023-02-18T23:47:27.343Z,5.36
2023-02-18T23:49:56.152Z,5.15
2023-02-18T23:52:27.591Z,5.19
2023-02-18T23:54:58.381Z,5.26
2023-02-18T23:57:28.983Z,5.30
2023-02-18T23:59:57.778Z,5.29
